createdAt,value
2022-10-18T00:02:13.764Z,39.45
2022-10-18T00:04:40.274Z,31.90
2022-10-18T00:07:06.705Z,34.20
2022-10-18T00:09:33.323Z,35.53
2022-10-18T00:12:00.722Z,30.50
2022-10-18T00:14:27.249Z,31.10
2022-10-18T00:16:53.734Z,17.85
2022-10-18T00:19:20.201Z,32.35
2022-10-18T00:21:46.652Z,23.00
2022-10-18T00:24:13.090Z,27.83
2022-10-18T00:26:39.628Z,31.58
2022-10-18T00:29:07.148Z,33.45
2022-10-18T00:31:37.990Z,32.08
2022-10-18T00:34:09.915Z,31.20
2022-10-18T00:36:36.447Z,32.22
2022-10-18T00:39:05.242Z,27.25
2022-10-18T00:41:34.005Z,34.67
2022-10-18T00:44:26.521Z,20.52
2022-10-18T00:46:59.358Z,37.05
2022-10-18T00:49:32.084Z,28.35
2022-10-18T00:52:26.766Z,30.88
2022-10-18T00:54:55.782Z,31.95
2022-10-18T00:57:23.508Z,32.65
2022-10-18T00:59:50.126Z,34.58
2022-10-18T01:02:18.329Z,30.30
2022-10-18T01:04:46.263Z,29.58
2022-10-18T01:07:32.827Z,24.73
2022-10-18T01:10:23.021Z,34.92
2022-10-18T01:16:10.234Z,37.28
2022-10-18T01:18:56.959Z,31.52
2022-10-18T01:21:57.347Z,39.22
2022-10-18T01:24:57.762Z,35.13
2022-10-18T01:27:40.829Z,34.85
2022-10-18T01:30:46.185Z,36.65
2022-10-18T01:33:15.422Z,37.08
2022-10-18T01:35:48.873Z,32.85
2022-10-18T01:38:18.889Z,28.52
2022-10-18T01:40:49.194Z,22.95
2022-10-18T01:43:17.068Z,32.53
2022-10-18T01:45:43.685Z,32.47
2022-10-18T01:48:12.695Z,35.03
2022-10-18T01:50:39.348Z,31.45
2022-10-18T01:53:05.960Z,26.95
2022-10-18T01:55:48.382Z,35.70
2022-10-18T01:58:28.509Z,30.90
2022-10-18T02:01:05.643Z,36.13
2022-10-18T02:03:34.890Z,23.63
2022-10-18T02:06:10.745Z,29.63
2022-10-18T02:08:49.862Z,29.63
2022-10-18T02:11:17.919Z,29.83
2022-10-18T02:13:52.394Z,30.30
2022-10-18T02:16:28.174Z,34.08
2022-10-18T02:21:57.192Z,31.55
2022-10-18T02:24:30.125Z,26.42
2022-10-18T02:26:56.768Z,30.23
2022-10-18T02:29:23.728Z,24.70
2022-10-18T02:31:59.637Z,20.75
2022-10-18T02:34:32.082Z,20.35
2022-10-18T02:37:01.044Z,30.58
2022-10-18T02:39:32.626Z,21.73
2022-10-18T02:41:59.868Z,31.15
2022-10-18T02:44:26.771Z,29.38
2022-10-18T02:46:54.370Z,30.48
2022-10-18T02:49:20.886Z,20.65
2022-10-18T02:51:47.346Z,28.95
2022-10-18T02:54:13.813Z,30.20
2022-10-18T02:56:40.313Z,30.98
2022-10-18T02:59:07.475Z,28.65
2022-10-18T03:01:36.049Z,20.02
2022-10-18T03:04:03.516Z,32.33
2022-10-18T03:06:30.510Z,28.75
2022-10-18T03:08:56.970Z,25.35
2022-10-18T03:11:23.685Z,28.20
2022-10-18T03:13:53.001Z,24.50
2022-10-18T03:16:19.694Z,24.83
2022-10-18T03:18:46.218Z,20.30
2022-10-18T03:21:12.762Z,23.08
2022-10-18T03:23:40.014Z,25.17
2022-10-18T03:26:06.612Z,24.50
2022-10-18T03:28:33.112Z,24.35
2022-10-18T03:31:04.298Z,25.23
2022-10-18T03:33:32.172Z,22.35
2022-10-18T03:35:58.641Z,23.58
2022-10-18T03:38:25.143Z,22.98
2022-10-18T03:40:51.708Z,16.90
2022-10-18T03:43:18.220Z,14.93
2022-10-18T03:45:44.826Z,22.83
2022-10-18T03:48:11.344Z,22.35
2022-10-18T03:50:37.823Z,31.33
2022-10-18T03:53:04.374Z,28.50
2022-10-18T03:55:30.910Z,30.95
2022-10-18T03:57:57.493Z,29.00
2022-10-18T04:00:24.017Z,29.92
2022-10-18T04:02:53.318Z,23.55
2022-10-18T04:05:24.001Z,30.65
2022-10-18T04:07:52.588Z,27.73
2022-10-18T04:10:19.946Z,27.92
2022-10-18T04:12:48.027Z,29.70
2022-10-18T04:15:14.903Z,31.45
2022-10-18T04:17:41.442Z,33.70
2022-10-18T04:20:08.565Z,33.70
2022-10-18T04:22:35.105Z,26.55
2022-10-18T04:25:01.577Z,34.00
2022-10-18T04:27:28.164Z,33.72
2022-10-18T04:29:54.660Z,32.58
2022-10-18T04:32:21.177Z,32.20
2022-10-18T04:34:47.682Z,39.83
2022-10-18T04:37:14.214Z,32.15
2022-10-18T04:39:40.699Z,35.45
2022-10-18T04:42:07.162Z,32.40
2022-10-18T04:44:34.388Z,37.88
2022-10-18T04:47:00.853Z,33.83
2022-10-18T04:49:27.294Z,36.75
2022-10-18T04:51:53.770Z,37.70
2022-10-18T04:54:21.856Z,39.35
2022-10-18T04:56:50.364Z,33.15
2022-10-18T04:59:16.834Z,37.88
2022-10-18T05:01:43.407Z,37.55
2022-10-18T05:04:09.973Z,37.10
2022-10-18T05:06:36.429Z,39.60
2022-10-18T05:09:02.922Z,38.78
2022-10-18T05:11:29.412Z,41.47
2022-10-18T05:13:56.130Z,36.17
2022-10-18T05:16:22.608Z,40.00
2022-10-18T05:18:49.152Z,44.83
2022-10-18T05:21:16.073Z,41.60
2022-10-18T05:23:42.653Z,42.58
2022-10-18T05:26:09.288Z,39.45
2022-10-18T05:28:40.419Z,40.42
2022-10-18T05:31:09.682Z,43.83
2022-10-18T05:33:36.162Z,41.80
2022-10-18T05:36:02.717Z,38.50
2022-10-18T05:38:30.930Z,29.13
2022-10-18T05:40:58.263Z,24.17
2022-10-18T05:43:28.545Z,42.03
2022-10-18T05:45:55.397Z,35.47
2022-10-18T05:48:21.929Z,45.83
2022-10-18T05:50:48.404Z,31.38
2022-10-18T05:53:35.149Z,18.35
2022-10-18T05:56:01.834Z,39.88
2022-10-18T05:58:28.415Z,50.90
2022-10-18T06:00:54.938Z,49.92
2022-10-18T06:03:21.384Z,44.30
2022-10-18T06:05:47.849Z,50.78
2022-10-18T06:08:14.305Z,41.72
2022-10-18T06:10:40.873Z,42.72
2022-10-18T06:13:07.338Z,45.63
2022-10-18T06:15:33.849Z,46.03
2022-10-18T06:18:00.329Z,45.42
2022-10-18T06:20:26.790Z,45.75
2022-10-18T06:22:53.604Z,49.67
2022-10-18T06:25:20.125Z,41.00
2022-10-18T06:27:46.581Z,47.05
2022-10-18T06:30:13.126Z,49.65
2022-10-18T06:32:39.612Z,44.28
2022-10-18T06:35:06.851Z,45.90
2022-10-18T06:37:35.507Z,41.90
2022-10-18T06:40:02.314Z,45.10
2022-10-18T06:42:28.851Z,45.97
2022-10-18T06:44:55.307Z,46.75
2022-10-18T06:47:21.792Z,45.40
2022-10-18T06:49:48.239Z,47.22
2022-10-18T06:52:17.715Z,43.30
2022-10-18T06:54:45.393Z,49.25
2022-10-18T06:57:12.016Z,45.67
2022-10-18T06:59:38.554Z,26.92
2022-10-18T07:02:05.444Z,39.17
2022-10-18T07:04:32.092Z,41.63
2022-10-18T07:06:58.697Z,43.35
2022-10-18T07:09:25.230Z,41.05
2022-10-18T07:11:52.902Z,46.95
2022-10-18T07:14:19.404Z,46.28
2022-10-18T07:16:45.892Z,48.30
2022-10-18T07:19:12.453Z,40.95
2022-10-18T07:21:38.898Z,50.53
2022-10-18T07:24:05.585Z,41.40
2022-10-18T07:26:34.649Z,46.83
2022-10-18T07:29:11.772Z,37.33
2022-10-18T07:31:38.676Z,42.67
2022-10-18T07:34:06.253Z,31.10
2022-10-18T07:36:33.213Z,49.50
2022-10-18T07:38:59.913Z,26.15
2022-10-18T07:41:26.377Z,45.90
2022-10-18T07:43:53.515Z,41.53
2022-10-18T07:46:21.672Z,46.42
2022-10-18T07:48:48.849Z,47.45
2022-10-18T07:51:15.746Z,42.58
2022-10-18T07:53:42.306Z,48.67
2022-10-18T07:56:15.661Z,47.05
2022-10-18T07:58:43.776Z,46.40
2022-10-18T08:01:10.671Z,28.00
2022-10-18T08:03:38.086Z,47.22
2022-10-18T08:06:08.044Z,50.03
2022-10-18T08:08:35.646Z,46.60
2022-10-18T08:11:04.714Z,28.55
2022-10-18T08:13:31.739Z,47.10
2022-10-18T08:16:07.104Z,49.78
2022-10-18T08:18:33.637Z,43.33
2022-10-18T08:21:01.078Z,46.88
2022-10-18T08:23:27.660Z,46.88
2022-10-18T08:25:54.133Z,40.47
2022-10-18T08:28:20.717Z,46.22
2022-10-18T08:30:47.169Z,45.58
2022-10-18T08:33:13.785Z,41.25
2022-10-18T08:35:40.254Z,42.97
2022-10-18T08:38:16.414Z,36.88
2022-10-18T08:40:45.040Z,45.60
2022-10-18T08:43:26.406Z,43.03
2022-10-18T08:45:54.456Z,44.08
2022-10-18T08:48:29.795Z,45.60
2022-10-18T08:50:58.332Z,49.47
2022-10-18T08:53:33.086Z,37.15
2022-10-18T08:56:24.058Z,40.17
2022-10-18T09:01:23.582Z,42.20
2022-10-18T09:04:23.980Z,41.47
2022-10-18T09:07:05.627Z,40.30
2022-10-18T09:09:59.982Z,38.50
2022-10-18T09:12:42.759Z,34.55
2022-10-18T09:15:40.366Z,29.65
2022-10-18T09:18:20.246Z,34.40
2022-10-18T09:20:52.681Z,40.17
2022-10-18T09:23:22.964Z,49.38
2022-10-18T09:26:17.658Z,36.55
2022-10-18T09:29:07.119Z,40.60
2022-10-18T09:31:49.557Z,39.05
2022-10-18T09:34:40.190Z,38.10
2022-10-18T09:37:13.497Z,37.15
2022-10-18T09:39:40.890Z,38.97
2022-10-18T09:42:21.535Z,39.45
2022-10-18T09:44:52.966Z,36.75
2022-10-18T09:50:15.430Z,33.30
2022-10-18T09:52:54.548Z,30.77
2022-10-18T09:55:31.052Z,37.42
2022-10-18T09:58:01.804Z,29.90
2022-10-18T10:00:31.910Z,33.40
2022-10-18T10:03:01.601Z,34.38
2022-10-18T10:05:28.041Z,28.02
2022-10-18T10:08:02.113Z,34.17
2022-10-18T10:10:30.337Z,33.72
2022-10-18T10:13:22.703Z,37.58
2022-10-18T10:15:55.857Z,33.90
2022-10-18T10:18:25.478Z,31.45
2022-10-18T10:20:58.156Z,36.72
2022-10-18T10:23:36.878Z,39.33
2022-10-18T10:26:27.455Z,41.97
2022-10-18T10:28:54.277Z,39.47
2022-10-18T10:31:31.514Z,37.38
2022-10-18T10:34:02.236Z,38.47
2022-10-18T10:36:30.318Z,37.90
2022-10-18T10:39:11.181Z,29.40
2022-10-18T10:41:40.234Z,26.08
2022-10-18T10:44:16.973Z,23.88
2022-10-18T10:46:44.078Z,19.40
2022-10-18T10:49:39.671Z,13.50
2022-10-18T10:52:15.376Z,10.07
2022-10-18T10:54:52.120Z,9.88
2022-10-18T10:57:28.904Z,8.88
2022-10-18T10:59:59.653Z,11.02
2022-10-18T11:02:31.728Z,9.10
2022-10-18T11:05:22.567Z,8.38
2022-10-18T11:07:52.206Z,7.88
2022-10-18T11:10:22.808Z,9.27
2022-10-18T11:13:02.494Z,7.78
2022-10-18T11:15:47.164Z,10.02
2022-10-18T11:18:14.643Z,8.50
2022-10-18T11:20:45.341Z,8.15
2022-10-18T11:23:14.397Z,7.50
2022-10-18T11:26:00.877Z,7.18
2022-10-18T11:28:36.436Z,5.32
2022-10-18T11:31:18.897Z,5.88
2022-10-18T11:34:12.115Z,5.50
2022-10-18T11:36:56.333Z,4.97
2022-10-18T11:39:43.494Z,4.53
2022-10-18T11:42:25.662Z,4.40
2022-10-18T11:45:14.965Z,5.43
2022-10-18T11:47:56.994Z,5.05
2022-10-18T11:50:29.326Z,4.72
2022-10-18T11:53:09.845Z,3.83
2022-10-18T11:55:56.768Z,5.65
2022-10-18T11:58:25.936Z,4.40
2022-10-18T12:00:58.561Z,4.75
2022-10-18T12:03:40.260Z,5.28
2022-10-18T12:06:15.054Z,3.95
2022-10-18T12:08:49.872Z,3.85
2022-10-18T12:11:22.318Z,3.50
2022-10-18T12:13:53.697Z,3.47
2022-10-18T12:16:45.585Z,3.42
2022-10-18T12:19:23.354Z,2.97
2022-10-18T12:21:53.832Z,3.22
2022-10-18T12:24:25.227Z,4.85
2022-10-18T12:26:57.050Z,6.72
2022-10-18T12:29:45.318Z,4.50
2022-10-18T12:32:29.802Z,6.78
2022-10-18T12:35:16.201Z,4.75
2022-10-18T12:38:07.616Z,6.00
2022-10-18T12:40:50.775Z,6.35
2022-10-18T12:43:22.645Z,5.00
2022-10-18T12:45:55.296Z,5.95
2022-10-18T12:48:31.660Z,5.85
2022-10-18T12:51:20.846Z,6.97
2022-10-18T12:54:09.159Z,8.05
2022-10-18T12:56:42.112Z,5.07
2022-10-18T12:59:14.934Z,4.55
2022-10-18T13:02:04.430Z,8.15
2022-10-18T13:04:32.454Z,3.90
2022-10-18T13:07:05.003Z,5.18
2022-10-18T13:09:36.640Z,5.38
2022-10-18T13:12:09.168Z,6.68
2022-10-18T13:14:35.621Z,3.13
2022-10-18T13:17:20.960Z,3.72
2022-10-18T13:20:24.028Z,4.03
2022-10-18T13:23:20.014Z,5.45
2022-10-18T13:26:00.602Z,3.75
2022-10-18T13:28:53.351Z,3.63
2022-10-18T13:31:27.019Z,4.07
2022-10-18T13:33:53.549Z,3.83
2022-10-18T13:36:24.873Z,6.10
2022-10-18T13:38:55.775Z,3.63
2022-10-18T13:44:02.577Z,4.38
2022-10-18T13:46:36.392Z,3.03
2022-10-18T13:49:19.686Z,5.75
2022-10-18T13:52:08.750Z,3.80
2022-10-18T13:54:53.586Z,3.25
2022-10-18T13:57:42.021Z,4.40
2022-10-18T14:00:30.021Z,4.70
2022-10-18T14:03:43.973Z,3.05
2022-10-18T14:06:10.560Z,4.07
2022-10-18T14:08:52.555Z,3.92
2022-10-18T14:11:41.993Z,6.13
2022-10-18T14:14:16.895Z,4.35
2022-10-18T14:17:14.188Z,4.47
2022-10-18T14:19:55.168Z,3.70
2022-10-18T14:22:46.055Z,5.18
2022-10-18T14:25:32.321Z,5.43
2022-10-18T14:28:15.431Z,6.88
2022-10-18T14:30:57.877Z,5.22
2022-10-18T14:33:32.598Z,4.07
2022-10-18T14:36:15.334Z,5.15
2022-10-18T14:38:53.053Z,6.50
2022-10-18T14:41:28.965Z,5.47
2022-10-18T14:44:14.772Z,5.97
2022-10-18T14:46:53.202Z,5.07
2022-10-18T14:49:21.050Z,6.05
2022-10-18T14:51:51.646Z,6.05
2022-10-18T14:54:46.688Z,4.53
2022-10-18T14:57:33.867Z,4.70
2022-10-18T15:00:04.892Z,5.18
2022-10-18T15:02:35.936Z,5.65
2022-10-18T15:05:07.396Z,4.57
2022-10-18T15:07:37.025Z,4.45
2022-10-18T15:10:05.295Z,5.32
2022-10-18T15:12:40.954Z,4.93
2022-10-18T15:15:20.827Z,4.65
2022-10-18T15:17:49.368Z,4.18
2022-10-18T15:20:22.764Z,4.47
2022-10-18T15:22:49.472Z,5.05
2022-10-18T15:25:32.058Z,6.03
2022-10-18T15:28:00.481Z,4.05
2022-10-18T15:30:37.366Z,4.78
2022-10-18T15:33:09.677Z,4.25
2022-10-18T15:35:38.346Z,3.30
2022-10-18T15:38:24.208Z,3.38
2022-10-18T15:40:51.007Z,3.10
2022-10-18T15:43:37.854Z,3.70
2022-10-18T15:46:06.588Z,2.47
2022-10-18T15:48:38.739Z,2.47
2022-10-18T15:51:23.716Z,3.95
2022-10-18T15:53:52.968Z,3.10
2022-10-18T15:56:30.322Z,3.58
2022-10-18T15:58:58.710Z,3.10
2022-10-18T16:01:36.042Z,3.35
2022-10-18T16:04:18.211Z,4.03
2022-10-18T16:06:44.854Z,4.60
2022-10-18T16:09:18.683Z,2.92
2022-10-18T16:11:45.572Z,3.70
2022-10-18T16:14:12.029Z,3.35
2022-10-18T16:16:39.899Z,3.38
2022-10-18T16:19:07.226Z,3.33
2022-10-18T16:21:38.535Z,5.65
2022-10-18T16:24:05.964Z,5.38
2022-10-18T16:26:32.703Z,3.15
2022-10-18T16:28:59.841Z,3.45
2022-10-18T16:31:29.310Z,3.67
2022-10-18T16:33:56.112Z,7.45
2022-10-18T16:36:25.298Z,6.65
2022-10-18T16:38:51.868Z,5.05
2022-10-18T16:41:18.534Z,7.15
2022-10-18T16:43:46.970Z,5.25
2022-10-18T16:46:17.664Z,7.90
2022-10-18T16:48:45.002Z,5.82
2022-10-18T16:51:11.944Z,5.82
2022-10-18T16:53:38.682Z,8.32
2022-10-18T16:56:11.737Z,4.80
2022-10-18T16:58:38.227Z,5.25
2022-10-18T17:01:08.019Z,3.42
2022-10-18T17:03:35.599Z,6.18
2022-10-18T17:06:02.043Z,5.28
2022-10-18T17:08:28.641Z,3.10
2022-10-18T17:10:57.559Z,8.18
2022-10-18T17:13:25.603Z,7.13
2022-10-18T17:15:53.404Z,9.45
2022-10-18T17:18:23.283Z,3.58
2022-10-18T17:20:50.293Z,3.30
2022-10-18T17:23:16.942Z,4.90
2022-10-18T17:25:57.456Z,3.65
2022-10-18T17:28:31.243Z,7.05
2022-10-18T17:30:57.770Z,3.53
2022-10-18T17:33:24.279Z,4.13
2022-10-18T17:35:50.758Z,7.93
2022-10-18T17:38:17.218Z,4.63
2022-10-18T17:40:43.804Z,4.47
2022-10-18T17:43:10.426Z,5.22
2022-10-18T17:45:36.964Z,5.85
2022-10-18T17:48:03.595Z,4.72
2022-10-18T17:50:30.077Z,3.92
2022-10-18T17:52:57.312Z,6.47
2022-10-18T17:55:23.780Z,5.85
2022-10-18T17:57:51.464Z,10.23
2022-10-18T18:00:17.987Z,6.90
2022-10-18T18:02:44.759Z,6.03
2022-10-18T18:05:12.572Z,4.30
2022-10-18T18:07:39.053Z,6.88
2022-10-18T18:10:06.006Z,3.33
2022-10-18T18:12:32.739Z,4.03
2022-10-18T18:14:59.518Z,4.35
2022-10-18T18:17:34.048Z,4.65
2022-10-18T18:20:01.081Z,3.80
2022-10-18T18:22:27.553Z,5.80
2022-10-18T18:24:54.027Z,6.95
2022-10-18T18:27:20.473Z,3.90
2022-10-18T18:29:48.293Z,6.18
2022-10-18T18:32:15.087Z,6.80
2022-10-18T18:34:41.684Z,5.40
2022-10-18T18:37:09.338Z,6.10
2022-10-18T18:39:36.325Z,5.97
2022-10-18T18:42:03.919Z,6.28
2022-10-18T18:44:32.078Z,5.50
2022-10-18T18:46:58.868Z,5.15
2022-10-18T18:49:27.386Z,4.90
2022-10-18T18:51:53.918Z,4.97
2022-10-18T18:54:21.980Z,5.85
2022-10-18T18:56:48.531Z,5.60
2022-10-18T18:59:15.729Z,4.40
2022-10-18T19:01:42.778Z,5.40
2022-10-18T19:04:10.939Z,6.22
2022-10-18T19:06:42.828Z,4.68
2022-10-18T19:09:18.538Z,5.43
2022-10-18T19:11:46.946Z,6.85
2022-10-18T19:14:14.318Z,5.95
2022-10-18T19:16:46.376Z,9.52
2022-10-18T19:19:15.432Z,10.05
2022-10-18T19:21:53.853Z,8.05
2022-10-18T19:24:21.731Z,6.00
2022-10-18T19:26:54.378Z,6.38
2022-10-18T19:29:22.321Z,9.10
2022-10-18T19:31:50.213Z,7.38
2022-10-18T19:34:17.773Z,7.00
2022-10-18T19:36:46.411Z,6.57
2022-10-18T19:39:23.494Z,6.40
2022-10-18T19:41:52.593Z,8.65
2022-10-18T19:44:20.129Z,9.57
2022-10-18T19:46:47.188Z,6.75
2022-10-18T19:49:14.014Z,10.38
2022-10-18T19:51:40.802Z,8.45
2022-10-18T19:54:07.454Z,7.70
2022-10-18T19:56:34.056Z,9.10
2022-10-18T19:59:00.714Z,9.20
2022-10-18T20:01:28.440Z,8.43
2022-10-18T20:03:55.368Z,11.35
2022-10-18T20:06:22.328Z,7.75
2022-10-18T20:08:48.890Z,9.80
2022-10-18T20:11:23.277Z,8.90
2022-10-18T20:13:50.418Z,6.15
2022-10-18T20:16:18.900Z,9.75
2022-10-18T20:18:45.343Z,10.55
2022-10-18T20:21:14.958Z,9.50
2022-10-18T20:23:44.000Z,9.00
2022-10-18T20:26:17.982Z,14.10
2022-10-18T20:28:48.187Z,11.20
2022-10-18T20:31:17.828Z,10.70
2022-10-18T20:33:45.861Z,5.95
2022-10-18T20:36:17.441Z,8.00
2022-10-18T20:38:46.248Z,5.82
2022-10-18T20:41:16.322Z,10.65
2022-10-18T20:43:43.208Z,5.95
2022-10-18T20:46:10.308Z,11.65
2022-10-18T20:48:38.481Z,9.02
2022-10-18T20:51:07.009Z,3.92
2022-10-18T20:53:35.243Z,3.53
2022-10-18T20:56:07.236Z,4.95
2022-10-18T20:58:37.632Z,11.75
2022-10-18T21:01:22.548Z,2.95
2022-10-18T21:03:50.661Z,5.80
2022-10-18T21:06:23.133Z,5.30
2022-10-18T21:09:11.923Z,4.32
2022-10-18T21:11:40.925Z,13.30
2022-10-18T21:14:12.025Z,4.43
2022-10-18T21:16:38.473Z,12.10
2022-10-18T21:19:06.962Z,30.15
2022-10-18T21:21:33.687Z,12.85
2022-10-18T21:24:02.603Z,15.88
2022-10-18T21:26:32.099Z,15.27
2022-10-18T21:28:59.688Z,15.55
2022-10-18T21:31:31.494Z,11.48
2022-10-18T21:34:00.095Z,17.17
2022-10-18T21:36:31.026Z,21.70
2022-10-18T21:38:57.932Z,39.08
2022-10-18T21:41:24.839Z,23.17
2022-10-18T21:43:53.721Z,21.80
2022-10-18T21:46:22.041Z,8.13
2022-10-18T21:48:51.652Z,11.73
2022-10-18T21:51:20.046Z,12.57
2022-10-18T21:53:48.424Z,8.38
2022-10-18T21:56:23.715Z,9.02
2022-10-18T21:58:50.647Z,9.70
2022-10-18T22:01:23.935Z,9.60
2022-10-18T22:03:51.938Z,8.98
2022-10-18T22:06:19.452Z,5.03
2022-10-18T22:08:52.378Z,6.15
2022-10-18T22:11:21.956Z,8.93
2022-10-18T22:13:48.531Z,5.20
2022-10-18T22:16:16.773Z,4.80
2022-10-18T22:18:44.793Z,4.38
2022-10-18T22:21:12.732Z,4.43
2022-10-18T22:23:44.908Z,9.00
2022-10-18T22:26:23.761Z,6.25
2022-10-18T22:29:01.827Z,14.52
2022-10-18T22:31:32.131Z,15.52
2022-10-18T22:34:01.083Z,16.23
2022-10-18T22:36:27.808Z,14.70
2022-10-18T22:38:54.324Z,11.20
2022-10-18T22:41:20.809Z,4.80
2022-10-18T22:43:47.776Z,11.85
2022-10-18T22:46:15.506Z,15.50
2022-10-18T22:48:43.045Z,15.57
2022-10-18T22:51:10.548Z,9.93
2022-10-18T22:53:38.152Z,16.58
2022-10-18T22:56:05.070Z,17.80
2022-10-18T22:58:32.223Z,22.73
2022-10-18T23:01:08.336Z,14.23
2022-10-18T23:03:35.516Z,25.40
2022-10-18T23:06:02.758Z,18.95
2022-10-18T23:08:29.679Z,12.27
2022-10-18T23:10:58.523Z,22.33
2022-10-18T23:13:26.886Z,17.13
2022-10-18T23:15:53.603Z,22.95
2022-10-18T23:18:20.241Z,15.75
2022-10-18T23:20:46.693Z,22.00
2022-10-18T23:23:13.569Z,14.77
2022-10-18T23:25:40.300Z,12.32
2022-10-18T23:28:07.012Z,24.30
2022-10-18T23:30:33.890Z,7.32
2022-10-18T23:33:00.628Z,20.35
2022-10-18T23:35:29.288Z,13.35
2022-10-18T23:37:55.783Z,16.70
2022-10-18T23:40:22.232Z,9.07
2022-10-18T23:42:48.693Z,19.95
2022-10-18T23:45:15.197Z,21.33
2022-10-18T23:47:41.656Z,17.83
2022-10-18T23:50:08.558Z,15.13
2022-10-18T23:52:35.034Z,17.75
2022-10-18T23:55:01.502Z,12.35
2022-10-18T23:57:28.730Z,17.65
2022-10-18T23:59:55.220Z,19.08
